createdAt,value
2019-04-14T00:01:36.962Z,102824.14
2019-04-14T00:04:26.948Z,102826.79
2019-04-14T00:15:36.230Z,102822.95
2019-04-14T00:20:49.202Z,102817.37
2019-04-14T00:27:06.579Z,102827.00
2019-04-14T00:29:37.065Z,102821.81
2019-04-14T00:32:07.360Z,102807.84
2019-04-14T00:34:57.197Z,102817.55
2019-04-14T00:38:04.329Z,102828.02
2019-04-14T00:40:38.995Z,102828.51
2019-04-14T00:43:28.726Z,102828.98
2019-04-14T00:48:40.954Z,102827.54
2019-04-14T00:51:11.341Z,102827.84
2019-04-14T00:54:00.217Z,102832.05
2019-04-14T00:56:30.097Z,102832.77
2019-04-14T01:01:48.816Z,102832.48
2019-04-14T01:04:18.724Z,102836.23
2019-04-14T01:06:49.124Z,102838.62
2019-04-14T01:09:19.399Z,102836.36
2019-04-14T01:14:38.800Z,102841.38
2019-04-14T01:17:09.090Z,102838.66
2019-04-14T01:19:39.878Z,102840.66
2019-04-14T01:22:09.543Z,102835.69
2019-04-14T01:24:40.400Z,102839.85
2019-04-14T01:27:12.389Z,102838.88
2019-04-14T01:29:42.723Z,102838.34
2019-04-14T01:32:13.344Z,102843.10
2019-04-14T01:37:51.193Z,102828.83
2019-04-14T01:40:20.727Z,102844.45
2019-04-14T01:42:52.669Z,102840.92
2019-04-14T01:46:13.792Z,102845.74
2019-04-14T01:48:33.110Z,102851.36
2019-04-14T01:51:22.399Z,102852.56
2019-04-14T01:54:11.230Z,102854.23
2019-04-14T01:57:19.999Z,102855.48
2019-04-14T01:59:50.830Z,102848.40
2019-04-14T02:04:58.025Z,102853.40
2019-04-14T02:07:27.759Z,102849.12
2019-04-14T02:09:57.566Z,102855.69
2019-04-14T02:12:28.079Z,102853.47
2019-04-14T02:14:58.257Z,102853.47
2019-04-14T02:17:30.759Z,102849.91
2019-04-14T02:20:01.539Z,102852.44
2019-04-14T02:25:45.067Z,102858.80
2019-04-14T02:28:15.606Z,102861.88
2019-04-14T02:30:54.333Z,102863.59
2019-04-14T02:38:49.392Z,102863.87
2019-04-14T02:44:33.519Z,102867.70
2019-04-14T02:46:59.578Z,102873.34
2019-04-14T02:49:37.936Z,102878.98
2019-04-14T02:54:43.446Z,102878.09
2019-04-14T02:57:15.093Z,102883.22
2019-04-14T03:00:29.043Z,102886.20
2019-04-14T03:02:44.477Z,102894.81
2019-04-14T03:05:45.147Z,102899.05
2019-04-14T03:08:06.508Z,102901.95
2019-04-14T03:11:21.117Z,102896.64
2019-04-14T03:19:14.127Z,102912.73
2019-04-14T03:22:21.580Z,102915.26
2019-04-14T03:24:47.594Z,102918.63
2019-04-14T03:33:17.314Z,102926.55
2019-04-14T03:38:18.299Z,102868.33
2019-04-14T03:40:50.568Z,102933.29
2019-04-14T03:43:18.785Z,102924.56
2019-04-14T03:45:55.176Z,102923.27
2019-04-14T03:48:45.125Z,102928.37
2019-04-14T03:50:58.511Z,102937.06
2019-04-14T03:53:24.692Z,102938.73
2019-04-14T03:56:07.341Z,102934.79
2019-04-14T03:58:33.523Z,102940.83
2019-04-14T04:01:34.621Z,102943.88
2019-04-14T04:07:06.255Z,102939.81
2019-04-14T04:09:56.203Z,102943.27
2019-04-14T04:12:27.175Z,102944.16
2019-04-14T04:14:57.545Z,102945.41
2019-04-14T04:17:45.742Z,102947.16
2019-04-14T04:20:34.974Z,102953.25
2019-04-14T04:23:16.256Z,102947.16
2019-04-14T04:26:04.466Z,102955.85
2019-04-14T04:32:07.699Z,102959.38
2019-04-14T04:34:55.938Z,102956.78
2019-04-14T04:37:44.136Z,102954.19
2019-04-14T04:40:20.537Z,102962.83
2019-04-14T04:42:50.514Z,102957.63
2019-04-14T04:45:21.328Z,102963.72
2019-04-14T04:47:51.896Z,102972.53
2019-04-14T04:50:21.432Z,102967.34
2019-04-14T04:52:52.173Z,102967.42
2019-04-14T04:55:21.983Z,102967.14
2019-04-14T04:57:52.492Z,102965.97
2019-04-14T05:00:22.178Z,102965.11
2019-04-14T05:02:52.823Z,102973.03
2019-04-14T05:06:00.396Z,102964.42
2019-04-14T05:14:24.028Z,102968.31
2019-04-14T05:16:54.964Z,102965.80
2019-04-14T05:19:30.280Z,102963.36
2019-04-14T05:21:56.025Z,102957.45
2019-04-14T05:24:25.364Z,102966.27
2019-04-14T05:26:54.906Z,102959.44
2019-04-14T05:29:25.679Z,102898.00
2019-04-14T05:31:55.503Z,102956.24
2019-04-14T05:34:26.148Z,102964.56
2019-04-14T05:36:57.021Z,102970.33
2019-04-14T05:39:26.492Z,102967.91
2019-04-14T05:42:06.733Z,102969.80
2019-04-14T05:44:29.586Z,102966.89
2019-04-14T05:47:00.037Z,102970.59
2019-04-14T05:50:09.755Z,102968.17
2019-04-14T05:52:40.360Z,102968.31
2019-04-14T05:55:11.149Z,102969.34
2019-04-14T05:57:41.621Z,102969.06
2019-04-14T06:03:14.575Z,102964.91
2019-04-14T06:05:45.062Z,102974.76
2019-04-14T06:08:15.885Z,102978.80
2019-04-14T06:13:40.689Z,102986.16
2019-04-14T06:16:10.020Z,102983.70
2019-04-14T06:18:39.418Z,102979.05
2019-04-14T06:21:08.712Z,102990.52
2019-04-14T06:23:56.957Z,102978.48
2019-04-14T06:26:28.506Z,102974.36
2019-04-14T06:28:57.805Z,102983.23
2019-04-14T06:34:21.361Z,102976.55
2019-04-14T06:36:57.517Z,102974.95
2019-04-14T06:39:29.314Z,102978.55
2019-04-14T06:41:59.016Z,102973.33
2019-04-14T06:45:07.681Z,102981.36
2019-04-14T06:47:56.049Z,102982.37
2019-04-14T06:50:25.380Z,102985.17
2019-04-14T06:56:09.348Z,102980.22
2019-04-14T06:58:38.635Z,102970.36
2019-04-14T07:01:10.287Z,102970.92
2019-04-14T07:03:39.598Z,102974.53
2019-04-14T07:06:10.920Z,102971.17
2019-04-14T07:08:40.254Z,102968.24
2019-04-14T07:11:09.566Z,102964.44
2019-04-14T07:13:57.866Z,102969.41
2019-04-14T07:16:27.222Z,102964.73
2019-04-14T07:18:56.524Z,102958.28
2019-04-14T07:21:25.825Z,102952.31
2019-04-14T07:23:55.180Z,102952.01
2019-04-14T07:26:26.539Z,102948.19
2019-04-14T07:28:56.818Z,102951.31
2019-04-14T07:37:40.313Z,102955.37
2019-04-14T07:43:20.281Z,102949.77
2019-04-14T07:46:08.756Z,102948.97
2019-04-14T07:48:56.930Z,102946.44
2019-04-14T07:51:45.142Z,102940.38
2019-04-14T07:57:41.946Z,102958.83
2019-04-14T08:03:18.780Z,102957.14
2019-04-14T08:09:17.298Z,102953.69
2019-04-14T08:11:49.032Z,102957.61
2019-04-14T08:14:18.308Z,102953.24
2019-04-14T08:16:47.655Z,102952.36
2019-04-14T08:19:35.986Z,102948.02
2019-04-14T08:22:05.291Z,102954.61
2019-04-14T08:24:53.546Z,102955.52
2019-04-14T08:27:22.876Z,102948.56
2019-04-14T08:29:54.914Z,102946.86
2019-04-14T08:32:24.261Z,102952.14
2019-04-14T08:37:28.837Z,102953.11
2019-04-14T08:39:58.387Z,102949.61
2019-04-14T08:46:01.066Z,102946.11
2019-04-14T08:48:49.390Z,102946.13
2019-04-14T08:51:45.239Z,102958.81
2019-04-14T08:57:36.775Z,102956.20
2019-04-14T09:03:24.865Z,102943.92
2019-04-14T09:06:02.931Z,102954.00
2019-04-14T09:09:10.097Z,102949.17
2019-04-14T09:11:44.225Z,102957.48
2019-04-14T09:14:13.569Z,102943.91
2019-04-14T09:16:42.864Z,102939.97
2019-04-14T09:19:12.261Z,102953.09
2019-04-14T09:22:00.586Z,102934.27
2019-04-14T09:24:29.890Z,102943.88
2019-04-14T09:27:38.510Z,102942.10
2019-04-14T09:30:19.415Z,102945.16
2019-04-14T09:32:48.720Z,102939.89
2019-04-14T09:35:18.358Z,102956.06
2019-04-14T09:38:26.970Z,102953.05
2019-04-14T09:40:56.247Z,102946.88
2019-04-14T09:43:25.712Z,102951.19
2019-04-14T09:45:55.005Z,102954.69
2019-04-14T09:49:03.713Z,102947.67
2019-04-14T09:51:33.082Z,102959.48
2019-04-14T09:54:02.378Z,102948.52
2019-04-14T09:56:31.815Z,102942.37
2019-04-14T09:59:01.079Z,102930.92
2019-04-14T10:01:49.408Z,102939.71
2019-04-14T10:04:18.724Z,102933.50
2019-04-14T10:06:47.988Z,102937.01
2019-04-14T10:12:07.318Z,102933.89
2019-04-14T10:14:36.686Z,102933.47
2019-04-14T10:17:05.991Z,102918.48
2019-04-14T10:19:35.269Z,102928.55
2019-04-14T10:22:04.586Z,102931.55
2019-04-14T10:24:33.875Z,102917.41
2019-04-14T10:27:03.171Z,102908.50
2019-04-14T10:29:43.823Z,102909.75
2019-04-14T10:32:13.155Z,102910.50
2019-04-14T10:34:42.440Z,102911.73
2019-04-14T10:37:11.749Z,102917.82
2019-04-14T10:39:41.031Z,102920.12
2019-04-14T10:45:06.369Z,102926.23
2019-04-14T10:47:35.672Z,102915.60
2019-04-14T10:50:44.764Z,102915.98
2019-04-14T10:53:14.052Z,102915.09
2019-04-14T10:55:43.354Z,102922.86
2019-04-14T10:58:51.989Z,102907.02
2019-04-14T11:01:24.191Z,102912.58
2019-04-14T11:04:32.809Z,102908.97
2019-04-14T11:07:28.082Z,102909.53
2019-04-14T11:12:53.119Z,102906.62
2019-04-14T11:15:22.446Z,102917.24
2019-04-14T11:17:51.784Z,102910.36
2019-04-14T11:20:21.099Z,102904.95
2019-04-14T11:23:02.524Z,102906.09
2019-04-14T11:25:21.477Z,102906.45
2019-04-14T11:27:50.777Z,102900.76
2019-04-14T11:33:30.122Z,102905.47
2019-04-14T11:36:18.308Z,102895.20
2019-04-14T11:39:06.550Z,102893.83
2019-04-14T11:41:35.850Z,102893.38
2019-04-14T11:44:44.488Z,102904.84
2019-04-14T11:50:03.733Z,102888.34
2019-04-14T11:52:35.679Z,102897.81
2019-04-14T11:55:04.163Z,102898.50
2019-04-14T11:57:33.475Z,102907.08
2019-04-14T12:03:21.505Z,102895.95
2019-04-14T12:09:04.452Z,102891.94
2019-04-14T12:11:33.752Z,102888.80
2019-04-14T12:14:03.059Z,102883.09
2019-04-14T12:16:32.403Z,102894.03
2019-04-14T12:19:03.725Z,102887.16
2019-04-14T12:21:33.024Z,102895.59
2019-04-14T12:24:02.341Z,102886.20
2019-04-14T12:26:31.662Z,102888.77
2019-04-14T12:29:03.051Z,102892.14
2019-04-14T12:32:11.384Z,102893.09
2019-04-14T12:34:40.690Z,102889.05
2019-04-14T12:37:09.991Z,102892.66
2019-04-14T12:39:39.309Z,102892.44
2019-04-14T12:42:27.529Z,102888.83
2019-04-14T12:45:15.756Z,102897.73
2019-04-14T12:48:04.000Z,102892.49
2019-04-14T12:53:26.169Z,102893.79
2019-04-14T12:55:55.451Z,102886.86
2019-04-14T12:58:43.699Z,102886.94
2019-04-14T13:04:03.307Z,102888.56
2019-04-14T13:06:32.661Z,102887.13
2019-04-14T13:09:21.028Z,102886.22
2019-04-14T13:12:10.409Z,102885.80
2019-04-14T13:14:40.380Z,102884.48
2019-04-14T13:17:09.697Z,102886.25
2019-04-14T13:19:57.943Z,102880.98
2019-04-14T13:22:33.678Z,102879.98
2019-04-14T13:24:58.848Z,102879.19
2019-04-14T13:27:28.093Z,102879.75
2019-04-14T13:32:53.106Z,102868.33
2019-04-14T13:35:22.422Z,102871.80
2019-04-14T13:37:51.718Z,102874.72
2019-04-14T13:40:21.195Z,102874.69
2019-04-14T13:42:50.477Z,102868.99
2019-04-14T13:45:19.797Z,102866.51
2019-04-14T13:50:24.351Z,102862.00
2019-04-14T13:52:53.726Z,102855.83
2019-04-14T13:55:23.080Z,102856.27
2019-04-14T13:57:52.400Z,102849.72
2019-04-14T14:03:17.188Z,102854.45
2019-04-14T14:05:46.481Z,102842.58
2019-04-14T14:08:15.780Z,102844.38
2019-04-14T14:10:45.079Z,102841.55
2019-04-14T14:16:41.873Z,102836.80
2019-04-14T14:19:30.101Z,102850.72
2019-04-14T14:22:18.293Z,102841.29
2019-04-14T14:24:51.650Z,102843.77
2019-04-14T14:27:21.005Z,102836.73
2019-04-14T14:29:50.373Z,102822.52
2019-04-14T14:35:44.185Z,102833.04
2019-04-14T14:38:13.479Z,102830.39
2019-04-14T14:43:17.668Z,102824.72
2019-04-14T14:46:05.891Z,102836.67
2019-04-14T14:48:54.137Z,102828.97
2019-04-14T14:51:42.382Z,102826.76
2019-04-14T14:57:01.621Z,102816.39
2019-04-14T14:59:31.022Z,102813.86
2019-04-14T15:02:19.298Z,102825.41
2019-04-14T15:04:48.610Z,102818.82
2019-04-14T15:07:17.920Z,102816.62
2019-04-14T15:09:47.235Z,102815.07
2019-04-14T15:12:16.525Z,102821.69
2019-04-14T15:14:45.853Z,102823.90
2019-04-14T15:17:15.224Z,102817.28
2019-04-14T15:20:23.843Z,102817.28
2019-04-14T15:22:53.372Z,102822.94
2019-04-14T15:25:22.756Z,102819.85
2019-04-14T15:27:52.056Z,102823.83
2019-04-14T15:30:22.351Z,102819.41
2019-04-14T15:32:51.624Z,102820.98
2019-04-14T15:35:21.103Z,102805.58
2019-04-14T15:37:50.463Z,102813.23
2019-04-14T15:40:19.862Z,102822.94
2019-04-14T15:42:49.136Z,102822.83
2019-04-14T15:45:18.504Z,102822.50
2019-04-14T15:47:47.841Z,102815.36
2019-04-14T15:50:17.121Z,102823.97
2019-04-14T15:52:46.431Z,102810.52
2019-04-14T15:55:55.036Z,102820.36
2019-04-14T15:58:43.234Z,102810.80
2019-04-14T16:01:31.467Z,102816.61
2019-04-14T16:04:19.770Z,102811.75
2019-04-14T16:10:12.504Z,102812.56
2019-04-14T16:18:51.790Z,102812.64
2019-04-14T16:21:21.091Z,102805.73
2019-04-14T16:23:51.128Z,102804.22
2019-04-14T16:26:40.354Z,102805.22
2019-04-14T16:29:28.579Z,102807.53
2019-04-14T16:32:16.890Z,102811.50
2019-04-14T16:34:49.613Z,102800.17
2019-04-14T16:37:19.042Z,102806.42
2019-04-14T16:39:48.375Z,102798.28
2019-04-14T16:42:17.851Z,102808.03
2019-04-14T16:44:47.252Z,102807.55
2019-04-14T16:47:16.533Z,102811.97
2019-04-14T16:49:48.316Z,102808.03
2019-04-14T16:52:36.520Z,102812.03
2019-04-14T16:58:28.700Z,102806.30
2019-04-14T17:01:36.006Z,102803.92
2019-04-14T17:04:44.637Z,102801.84
2019-04-14T17:07:13.950Z,102815.77
2019-04-14T17:09:43.275Z,102813.59
2019-04-14T17:12:31.966Z,102813.44
2019-04-14T17:18:18.953Z,102808.27
2019-04-14T17:21:18.827Z,102809.11
2019-04-14T17:24:16.470Z,102809.11
2019-04-14T17:26:42.592Z,102814.15
2019-04-14T17:29:30.889Z,102820.83
2019-04-14T17:32:38.099Z,102815.86
2019-04-14T17:35:46.905Z,102815.86
2019-04-14T17:38:47.021Z,102822.17
2019-04-14T17:41:25.579Z,102823.19
2019-04-14T17:44:09.613Z,102820.67
2019-04-14T17:46:57.800Z,102832.20
2019-04-14T17:49:46.010Z,102829.72
2019-04-14T17:52:34.216Z,102825.89
2019-04-14T17:58:01.511Z,102834.55
2019-04-14T18:00:49.687Z,102832.39
2019-04-14T18:03:37.952Z,102832.92
2019-04-14T18:06:26.143Z,102837.47
2019-04-14T18:09:14.331Z,102838.86
2019-04-14T18:12:02.539Z,102845.56
2019-04-14T18:14:39.422Z,102844.80
2019-04-14T18:17:46.661Z,102846.22
2019-04-14T18:25:55.074Z,102847.89
2019-04-14T18:31:24.927Z,102854.55
2019-04-14T18:34:13.134Z,102855.96
2019-04-14T18:37:01.376Z,102854.67
2019-04-14T18:39:50.002Z,102860.84
2019-04-14T18:42:33.641Z,102869.27
2019-04-14T18:45:42.861Z,102871.09
2019-04-14T18:48:31.000Z,102876.89
2019-04-14T18:51:19.604Z,102869.94
2019-04-14T18:56:49.337Z,102881.90
2019-04-14T18:59:37.591Z,102877.53
2019-04-14T19:02:07.319Z,102889.84
2019-04-14T19:04:36.632Z,102892.95
2019-04-14T19:07:05.965Z,102889.03
2019-04-14T19:09:35.318Z,102895.21
2019-04-14T19:12:23.573Z,102893.91
2019-04-14T19:17:49.297Z,102900.97
2019-04-14T19:20:22.689Z,102895.30
2019-04-14T19:22:52.022Z,102899.25
2019-04-14T19:25:21.333Z,102901.05
2019-04-14T19:27:50.651Z,102897.97
2019-04-14T19:30:20.043Z,102904.54
2019-04-14T19:32:49.392Z,102910.69
2019-04-14T19:35:18.684Z,102917.25
2019-04-14T19:37:48.052Z,102922.92
2019-04-14T19:40:17.470Z,102921.61
2019-04-14T19:42:46.797Z,102925.13
2019-04-14T19:45:16.156Z,102923.38
2019-04-14T19:47:45.446Z,102931.67
2019-04-14T19:50:14.746Z,102926.88
2019-04-14T19:52:44.128Z,102931.23
2019-04-14T19:55:20.299Z,102762.33
2019-04-14T19:57:44.493Z,102934.23
2019-04-14T20:00:53.155Z,102941.66
2019-04-14T20:03:22.843Z,102939.45
2019-04-14T20:05:52.183Z,102940.75
2019-04-14T20:08:21.537Z,102949.48
2019-04-14T20:10:50.954Z,102948.63
2019-04-14T20:13:20.285Z,102947.70
2019-04-14T20:16:08.521Z,102955.56
2019-04-14T20:18:51.376Z,102954.24
2019-04-14T20:21:39.636Z,102954.64
2019-04-14T20:24:27.820Z,102957.69
2019-04-14T20:27:16.194Z,102953.72
2019-04-14T20:29:49.125Z,102960.66
2019-04-14T20:32:37.402Z,102959.33
2019-04-14T20:40:42.994Z,102959.70
2019-04-14T20:43:12.380Z,102961.85
2019-04-14T20:45:41.725Z,102966.65
2019-04-14T20:48:11.028Z,102973.19
2019-04-14T20:50:40.329Z,102915.77
2019-04-14T20:53:09.685Z,102981.88
2019-04-14T20:55:46.720Z,102978.75
2019-04-14T20:58:10.111Z,102985.73
2019-04-14T21:00:39.519Z,102987.44
2019-04-14T21:03:27.713Z,102983.96
2019-04-14T21:06:15.996Z,102988.28
2019-04-14T21:09:04.209Z,102987.39
2019-04-14T21:11:52.386Z,102989.98
2019-04-14T21:14:40.590Z,102993.91
2019-04-14T21:17:28.821Z,102996.06
2019-04-14T21:20:04.373Z,102996.03
2019-04-14T21:22:40.221Z,103003.88
2019-04-14T21:25:28.543Z,103002.95
2019-04-14T21:28:16.796Z,103009.05
2019-04-14T21:31:05.008Z,103010.30
2019-04-14T21:33:53.189Z,103024.21
2019-04-14T21:36:28.043Z,103021.12
2019-04-14T21:39:16.228Z,103015.84
2019-04-14T21:41:47.259Z,103026.33
2019-04-14T21:44:16.557Z,103019.29
2019-04-14T21:46:46.056Z,103038.48
2019-04-14T21:49:15.287Z,103031.00
2019-04-14T21:52:22.598Z,103036.67
2019-04-14T21:54:51.880Z,103033.55
2019-04-14T21:57:40.111Z,103032.17
2019-04-14T22:00:49.058Z,103033.94
2019-04-14T22:06:23.270Z,103034.66
2019-04-14T22:11:46.346Z,103035.41
2019-04-14T22:14:15.747Z,103035.38
2019-04-14T22:19:52.255Z,103044.91
2019-04-14T22:22:21.573Z,103045.65
2019-04-14T22:24:50.875Z,103038.68
2019-04-14T22:27:20.172Z,103042.12
2019-04-14T22:29:49.504Z,103045.13
2019-04-14T22:32:18.784Z,103046.44
2019-04-14T22:34:48.051Z,103045.05
2019-04-14T22:37:17.343Z,103043.70
2019-04-14T22:39:46.625Z,103055.02
2019-04-14T22:42:16.002Z,103051.90
2019-04-14T22:44:45.292Z,103060.61
2019-04-14T22:47:14.573Z,103063.57
2019-04-14T22:49:43.839Z,103061.83
2019-04-14T22:52:13.173Z,103063.09
2019-04-14T22:54:42.462Z,103069.58
2019-04-14T22:57:11.751Z,103071.31
2019-04-14T22:59:41.033Z,103065.56
2019-04-14T23:02:15.509Z,103067.70
2019-04-14T23:05:03.685Z,103068.56
2019-04-14T23:11:06.150Z,103076.30
2019-04-14T23:16:38.635Z,103080.52
2019-04-14T23:19:12.132Z,103078.67
2019-04-14T23:22:00.352Z,103083.84
2019-04-14T23:24:32.751Z,103081.63
2019-04-14T23:27:02.148Z,103086.36
2019-04-14T23:34:42.399Z,103084.04
2019-04-14T23:37:30.659Z,103083.98
2019-04-14T23:39:59.962Z,103084.36
2019-04-14T23:45:17.528Z,103079.86
2019-04-14T23:47:46.796Z,103089.42
2019-04-14T23:50:16.065Z,103088.47
2019-04-14T23:52:45.367Z,103087.09
2019-04-14T23:55:53.988Z,103090.89
2019-04-14T23:58:23.282Z,103090.81
